Time;durP1;ratioP1;P1;durP2;ratioP2;P2;SDS_P1;SDS_P2;PMS_P1;PMS_P2;Temp;Humidity;BMP_temperature;BMP_pressure;BME280_temperature;BME280_humidity;BME280_pressure;Samples;Min_cycle;Max_cycle;Signal;HPM_P1;HPM_P2
2023/08/19 01:51:55;;;;;;;12.38;11.18;;;;;;;20.31;77.53;98137.53;4951525;28;20051;-81
2023/08/19 02:19:53;;;;;;;14.98;12.32;;;;;;;20.59;78.61;98203.94;4951228;28;20564;-81
2023/08/19 02:38:33;;;;;;;13.05;11.07;;;;;;;20.70;78.82;98210.00;4921669;29;20795;-80
2023/08/19 02:45:35;;;;;;;13.43;12.02;;;;;;;20.67;79.27;98204.03;4875784;29;20424;-81
2023/08/19 03:39:48;;;;;;;13.48;11.98;;;;;;;19.82;79.63;98171.13;4953646;29;20478;-80
2023/08/19 03:42:25;;;;;;;13.65;12.05;;;;;;;20.03;79.21;98215.25;4946503;29;20063;-80
2023/08/19 03:45:32;;;;;;;15.05;11.82;;;;;;;20.03;79.39;98226.19;4936720;28;20494;-82
2023/08/19 03:48:27;;;;;;;16.10;11.45;;;;;;;20.02;79.80;98223.78;4942628;28;20121;-82
2023/08/19 03:51:13;;;;;;;12.52;11.18;;;;;;;20.02;79.27;98227.31;4942511;29;20066;-79
2023/08/19 03:54:05;;;;;;;17.73;11.38;;;;;;;19.70;79.91;98172.72;4922359;29;20085;-81
2023/08/19 03:57:19;;;;;;;12.77;11.57;;;;;;;19.99;79.59;98225.19;4941091;28;20410;-80
2023/08/19 04:08:34;;;;;;;15.40;13.80;;;;;;;19.63;80.68;98233.25;4932891;29;20464;-81
2023/08/19 04:11:14;;;;;;;19.70;16.85;;;;;;;19.60;80.92;98227.59;4932032;29;20035;-81
2023/08/19 04:14:12;;;;;;;20.85;15.88;;;;;;;19.17;81.39;98169.63;4915412;29;20039;-81
2023/08/19 04:17:00;;;;;;;;;;;;;;;19.39;81.59;98242.75;4929392;29;20513;-80
2023/08/19 04:19:37;;;;;;;17.58;15.02;;;;;;;19.28;81.28;98196.44;4934663;29;19929;-80
2023/08/19 04:23:02;;;;;;;14.55;13.05;;;;;;;19.55;81.12;98241.34;4939644;29;20162;-80
2023/08/19 04:25:53;;;;;;;13.63;12.32;;;;;;;19.26;81.17;98195.94;4940013;29;20513;-80
2023/08/19 04:28:28;;;;;;;14.70;13.25;;;;;;;19.61;81.18;98251.06;4939840;28;20087;-81
2023/08/19 04:31:20;;;;;;;14.15;12.65;;;;;;;19.65;80.96;98257.56;4930414;29;20555;-82
2023/08/19 04:34:54;;;;;;;14.95;12.52;;;;;;;19.54;80.86;98246.00;4939975;29;20035;-80
2023/08/19 04:37:41;;;;;;;13.25;11.85;;;;;;;19.70;80.77;98260.19;4942596;28;20039;-84
2023/08/19 04:40:46;;;;;;;13.07;11.70;;;;;;;19.74;80.96;98263.94;4924356;29;20089;-82
2023/08/19 04:43:23;;;;;;;13.98;11.98;;;;;;;19.27;80.69;98196.75;4923911;28;20043;-82
2023/08/19 04:46:13;;;;;;;;;;;;;;;;;;;;;
2023/08/19 04:49:19;;;;;;;16.38;12.77;;;;;;;19.49;81.08;98237.06;4939472;29;20134;-81
2023/08/19 04:52:19;;;;;;;13.63;12.20;;;;;;;19.79;80.77;98280.25;4923469;29;20039;-84
2023/08/19 04:55:20;;;;;;;12.55;11.35;;;;;;;19.82;80.81;98280.44;4940798;28;20091;-82
2023/08/19 04:58:00;;;;;;;13.27;11.27;;;;;;;19.54;80.79;98229.59;4940533;29;20035;-86
2023/08/19 05:00:43;;;;;;;14.98;11.27;;;;;;;19.59;80.67;98225.97;4928325;29;20035;-87
2023/08/19 05:03:35;;;;;;;13.65;11.60;;;;;;;19.94;80.59;98271.75;4922634;29;20046;-87
2023/08/19 05:06:41;;;;;;;13.48;12.07;;;;;;;19.97;80.60;98279.34;4950552;29;20111;-85
2023/08/19 05:09:24;;;;;;;12.68;11.38;;;;;;;19.64;80.74;98223.16;4947831;29;20059;-83
2023/08/19 05:12:19;;;;;;;13.95;12.57;;;;;;;19.65;80.86;98231.03;4945380;29;20046;-87
2023/08/19 05:15:27;;;;;;;16.15;13.63;;;;;;;19.96;81.02;98286.75;4927174;29;20114;-86
2023/08/19 05:18:08;;;;;;;14.67;13.17;;;;;;;19.66;81.01;98237.31;4938922;29;20039;-82
2023/08/19 05:21:04;;;;;;;14.75;13.25;;;;;;;19.88;81.18;98275.72;4924277;29;20287;-83
2023/08/19 05:23:55;;;;;;;13.25;11.85;;;;;;;20.05;80.78;98284.09;4907471;29;20038;-84
2023/08/19 05:26:53;;;;;;;13.43;11.90;;;;;;;20.18;80.91;98288.78;4941018;29;20582;-85
2023/08/19 05:29:54;;;;;;;13.32;11.88;;;;;;;20.00;81.19;98265.06;4987539;28;20101;-83
2023/08/19 05:33:10;;;;;;;13.80;12.30;;;;;;;20.13;81.42;98275.22;4991543;28;20041;-83
2023/08/19 05:35:54;;;;;;;;;;;;;;;20.12;82.18;98289.97;4921049;29;20039;-83
2023/08/19 05:38:52;;;;;;;13.82;12.20;;;;;;;20.32;81.32;98262.28;4922949;28;19987;-82
2023/08/19 05:45:57;;;;;;;15.38;11.75;;;;;;;20.79;81.11;98287.53;4921481;29;20106;-84
2023/08/19 05:49:00;;;;;;;13.25;11.95;;;;;;;20.99;80.58;98298.00;4913031;29;20044;-84
2023/08/19 05:51:38;;;;;;;;;;;;;;;;;;;;;
2023/08/19 05:54:05;;;;;;;14.27;12.05;;;;;;;21.24;81.30;98294.69;4926570;29;20418;-81
2023/08/19 05:56:31;;;;;;;14.13;12.45;;;;;;;21.37;81.41;98302.06;4930239;29;20082;-79
2023/08/19 05:59:02;;;;;;;12.48;11.18;;;;;;;21.12;81.06;98247.88;4930298;29;20057;-81
2023/08/19 06:01:51;;;;;;;;;;;;;;;;;;;;;
2023/08/19 06:04:36;;;;;;;;;;;;;;;;;;;;;
2023/08/19 06:07:38;;;;;;;12.88;10.38;;;;;;;21.72;80.61;98322.28;4939916;29;20047;-81
2023/08/19 06:10:05;;;;;;;12.57;10.45;;;;;;;21.78;80.80;98323.75;4941702;29;20031;-81
2023/08/19 06:12:30;;;;;;;12.90;9.88;;;;;;;21.82;79.92;98311.06;4908872;29;20027;-81
2023/08/19 06:15:08;;;;;;;11.57;10.40;;;;;;;21.95;79.28;98318.41;4911504;29;20417;-79
2023/08/19 06:17:43;;;;;;;11.93;10.15;;;;;;;22.02;78.90;98318.75;4907431;29;20051;-81
2023/08/19 06:20:11;;;;;;;10.23;9.25;;;;;;;21.67;78.12;98260.16;4924378;29;20097;-82
2023/08/19 06:22:36;;;;;;;10.98;9.88;;;;;;;22.12;77.67;98320.41;4924040;29;20035;-79
2023/08/19 06:25:02;;;;;;;12.50;9.93;;;;;;;21.69;76.87;98246.94;4907974;29;20054;-79
2023/08/19 06:27:28;;;;;;;11.85;10.02;;;;;;;22.22;76.63;98320.16;4929732;29;20038;-81
2023/08/19 06:29:53;;;;;;;11.13;10.02;;;;;;;22.42;76.44;98331.34;4929584;29;20413;-79
2023/08/19 06:32:31;;;;;;;9.70;8.73;;;;;;;22.56;75.85;98333.97;4908669;29;20038;-82
2023/08/19 06:35:09;;;;;;;10.27;9.10;;;;;;;22.58;75.12;98332.53;4926913;29;20039;-82
2023/08/19 06:37:40;;;;;;;9.85;8.82;;;;;;;22.21;74.56;98260.91;4913005;29;20032;-79
2023/08/19 06:40:08;;;;;;;9.55;8.55;;;;;;;22.71;74.43;98325.31;4935081;29;20070;-82
2023/08/19 06:42:56;;;;;;;10.30;8.82;;;;;;;22.89;74.40;98335.22;4922202;29;20058;-83
2023/08/19 06:45:55;;;;;;;11.13;9.25;;;;;;;23.03;74.38;98335.88;4941361;29;20039;-83
2023/08/19 06:48:59;;;;;;;10.95;9.52;;;;;;;22.98;74.67;98322.31;4942011;29;20056;-81
2023/08/19 06:51:45;;;;;;;10.25;9.15;;;;;;;23.24;74.54;98331.34;4931352;28;20067;-81
2023/08/19 06:54:49;;;;;;;10.95;9.30;;;;;;;23.34;73.65;98320.06;4938628;28;20397;-81
2023/08/19 06:57:47;;;;;;;10.10;9.10;;;;;;;23.53;73.33;98332.66;4930885;28;20098;-81
2023/08/19 07:00:34;;;;;;;11.00;8.23;;;;;;;23.81;72.82;98353.16;4927685;29;20149;-82
2023/08/19 07:03:21;;;;;;;11.00;8.20;;;;;;;23.95;72.28;98345.53;4911340;29;20043;-82
2023/08/19 07:06:24;;;;;;;9.75;8.75;;;;;;;24.00;71.90;98348.94;4935139;29;20035;-83
2023/08/19 07:08:50;;;;;;;9.38;8.48;;;;;;;24.07;71.42;98348.44;4945434;29;20043;-80
2023/08/19 07:11:16;;;;;;;9.63;8.50;;;;;;;24.20;71.65;98343.88;4929079;29;20058;-81
2023/08/19 07:13:42;;;;;;;9.02;8.10;;;;;;;24.32;71.27;98355.03;4929095;29;20043;-80
2023/08/19 07:16:10;;;;;;;9.32;7.97;;;;;;;24.40;70.81;98351.41;4939350;29;20043;-83
2023/08/19 07:18:40;;;;;;;10.15;7.60;;;;;;;24.37;70.55;98343.81;4920938;29;20075;-81
2023/08/19 07:21:11;;;;;;;9.20;8.18;;;;;;;24.51;70.93;98347.94;4928266;29;20066;-80
2023/08/19 07:23:37;;;;;;;10.32;8.15;;;;;;;24.56;70.60;98339.50;4916061;29;20054;-80
2023/08/19 07:26:03;;;;;;;9.23;7.93;;;;;;;24.64;71.90;98330.38;4918252;29;20016;-80
2023/08/19 07:28:29;;;;;;;8.40;7.38;;;;;;;24.88;71.31;98356.56;4936965;29;20130;-81
2023/08/19 07:30:55;;;;;;;10.18;7.70;;;;;;;24.76;70.32;98312.34;4912945;29;20027;-80
2023/08/19 07:33:21;;;;;;;8.70;7.80;;;;;;;25.19;69.77;98356.97;4931218;29;20069;-81
2023/08/19 07:35:46;;;;;;;8.10;7.38;;;;;;;25.14;69.80;98340.63;4913889;29;20020;-81
2023/08/19 07:38:12;;;;;;;8.90;8.13;;;;;;;25.20;68.80;98336.53;4931701;29;20138;-81
2023/08/19 07:40:37;;;;;;;9.18;8.00;;;;;;;25.37;69.50;98347.41;4923851;29;20406;-80
2023/08/19 07:43:03;;;;;;;8.80;7.90;;;;;;;25.43;69.53;98346.09;4936085;28;20424;-80
2023/08/19 07:45:28;;;;;;;8.82;8.00;;;;;;;25.61;69.65;98336.53;4910854;29;20027;-79
2023/08/19 07:47:54;;;;;;;8.90;7.60;;;;;;;25.73;68.77;98344.88;4909505;29;20078;-80
2023/08/19 07:50:19;;;;;;;8.30;7.22;;;;;;;25.89;68.90;98337.56;4930059;29;20039;-80
2023/08/19 07:52:45;;;;;;;8.40;7.03;;;;;;;25.99;67.19;98341.84;4915422;29;20043;-81
2023/08/19 07:55:10;;;;;;;9.75;7.32;;;;;;;26.20;65.94;98341.78;4934726;29;20125;-80
2023/08/19 07:57:36;;;;;;;9.13;6.63;;;;;;;26.00;65.63;98289.03;4931852;29;20043;-80
2023/08/19 08:00:01;;;;;;;8.10;6.95;;;;;;;26.52;64.73;98354.72;4925440;29;20031;-80
2023/08/19 08:02:27;;;;;;;9.70;7.13;;;;;;;26.58;64.18;98334.00;4922288;29;20047;-81
2023/08/19 08:04:52;;;;;;;8.02;7.05;;;;;;;26.60;64.18;98321.47;4920865;29;20054;-81
2023/08/19 08:07:19;;;;;;;7.65;6.95;;;;;;;26.89;64.57;98352.78;4924441;29;20426;-81
2023/08/19 08:09:45;;;;;;;7.05;6.35;;;;;;;26.95;64.35;98334.81;4915318;29;20024;-81
2023/08/19 08:12:11;;;;;;;6.40;5.55;;;;;;;27.10;62.68;98340.44;4936539;29;20043;-80
2023/08/19 08:14:37;;;;;;;8.93;5.50;;;;;;;27.08;61.21;98306.78;4909940;29;20378;-82
2023/08/19 08:17:02;;;;;;;5.78;5.18;;;;;;;27.29;60.77;98334.28;4926106;29;20126;-80
2023/08/19 08:19:28;;;;;;;5.68;5.05;;;;;;;27.32;60.38;98328.84;4931550;29;20497;-81
2023/08/19 08:21:54;;;;;;;6.93;4.97;;;;;;;27.42;59.64;98324.00;4915936;29;20081;-81
2023/08/19 08:24:20;;;;;;;6.88;5.10;;;;;;;27.57;59.69;98339.84;4929712;28;20035;-81
2023/08/19 08:26:45;;;;;;;5.90;4.65;;;;;;;27.58;59.60;98324.88;4928473;29;20035;-82
2023/08/19 08:29:11;;;;;;;9.10;4.55;;;;;;;27.73;60.00;98332.41;4929460;28;20036;-79
2023/08/19 08:31:36;;;;;;;4.85;4.40;;;;;;;27.74;58.99;98323.75;4930733;29;20039;-78
2023/08/19 08:34:02;;;;;;;8.45;4.80;;;;;;;27.87;58.29;98318.94;4912748;28;20032;-78
2023/08/19 08:36:27;;;;;;;6.55;4.65;;;;;;;28.02;57.35;98334.81;4917806;29;20684;-77
2023/08/19 08:38:53;;;;;;;5.07;4.57;;;;;;;28.08;57.40;98333.41;4920448;29;20024;-78
2023/08/19 08:41:18;;;;;;;5.03;4.63;;;;;;;28.05;56.81;98323.81;4919917;28;20038;-77
2023/08/19 08:43:46;;;;;;;8.30;4.38;;;;;;;28.21;56.16;98332.19;4917370;28;20053;-78
2023/08/19 08:46:13;;;;;;;5.63;4.68;;;;;;;28.35;56.40;98342.81;4913736;29;20065;-77
2023/08/19 08:48:38;;;;;;;5.43;4.65;;;;;;;28.45;55.46;98343.06;4908116;29;20035;-77
2023/08/19 08:51:04;;;;;;;5.43;4.25;;;;;;;28.51;56.69;98338.88;4907372;28;20035;-77
2023/08/19 08:53:33;;;;;;;6.50;5.05;;;;;;;28.67;55.86;98344.44;4930984;28;20032;-78
2023/08/19 08:55:58;;;;;;;6.95;4.32;;;;;;;28.71;55.03;98340.59;4919762;29;20421;-81
2023/08/19 08:58:23;;;;;;;5.75;4.80;;;;;;;28.78;54.78;98344.72;4928321;29;20027;-81
2023/08/19 09:00:49;;;;;;;5.07;4.57;;;;;;;28.62;54.11;98317.78;4913593;29;20046;-81
2023/08/19 09:03:18;;;;;;;5.05;4.45;;;;;;;28.78;54.10;98328.06;4908173;29;20107;-82
2023/08/19 09:05:44;;;;;;;4.43;4.03;;;;;;;28.85;53.40;98337.34;4923317;29;20129;-80
2023/08/19 09:08:17;;;;;;;7.40;4.47;;;;;;;29.03;53.42;98340.53;4966122;28;20086;-80
2023/08/19 09:10:43;;;;;;;5.32;4.57;;;;;;;29.06;52.80;98339.78;5017195;28;20043;-81
2023/08/19 09:13:09;;;;;;;6.07;4.95;;;;;;;29.22;53.13;98346.94;4943063;28;20023;-81
2023/08/19 09:15:34;;;;;;;8.32;5.22;;;;;;;29.25;52.24;98353.75;4926864;29;20032;-81
2023/08/19 09:18:54;;;;;;;4.53;4.13;;;;;;;29.25;51.70;98348.19;4908544;29;20059;-80
2023/08/19 09:21:19;;;;;;;4.32;3.60;;;;;;;29.24;51.94;98324.41;4909336;28;20079;-80
2023/08/19 09:23:50;;;;;;;4.03;3.67;;;;;;;29.46;50.91;98342.28;4889010;28;20026;-81
2023/08/19 09:30:05;;;;;;;5.70;4.30;;;;;;;29.24;50.91;98288.31;4971527;28;20074;-82
2023/08/19 09:32:32;;;;;;;5.05;4.25;;;;;;;29.63;51.98;98342.66;4932848;28;20066;-82
2023/08/19 09:35:14;;;;;;;4.72;4.32;;;;;;;29.66;50.68;98341.94;4936286;28;20070;-82
2023/08/19 09:37:40;;;;;;;4.93;4.43;;;;;;;29.57;50.30;98319.13;4915312;29;20505;-83
2023/08/19 09:40:08;;;;;;;5.32;4.10;;;;;;;29.90;50.57;98341.66;4916419;28;20027;-81
2023/08/19 09:42:35;;;;;;;6.65;4.00;;;;;;;29.88;50.19;98326.53;4916670;29;20401;-83
2023/08/19 09:45:04;;;;;;;8.48;6.07;;;;;;;30.00;50.63;98323.56;4915531;29;20059;-83
2023/08/19 09:47:30;;;;;;;5.57;4.70;;;;;;;30.24;50.05;98339.09;4933086;28;20050;-82
2023/08/19 09:49:56;;;;;;;5.20;4.57;;;;;;;30.23;50.61;98331.91;4915789;29;20446;-82
2023/08/19 09:52:22;;;;;;;5.82;5.05;;;;;;;30.18;49.58;98318.34;4923343;29;20043;-83
2023/08/19 09:54:53;;;;;;;4.75;4.35;;;;;;;30.03;48.83;98284.75;4919156;28;20026;-81
2023/08/19 09:57:32;;;;;;;6.57;4.63;;;;;;;30.47;49.54;98332.41;4919733;29;20125;-81
2023/08/19 09:59:59;;;;;;;4.50;4.10;;;;;;;30.56;49.01;98346.03;4915145;29;20119;-83
2023/08/19 10:02:24;;;;;;;4.70;4.30;;;;;;;30.64;47.85;98342.22;4930589;28;20027;-83
2023/08/19 10:04:50;;;;;;;9.07;4.10;;;;;;;30.67;48.27;98347.00;4959980;28;20035;-83
2023/08/19 10:07:16;;;;;;;5.43;4.05;;;;;;;30.43;47.86;98294.59;4908011;29;20482;-83
2023/08/19 10:09:43;;;;;;;4.38;3.97;;;;;;;30.56;47.31;98315.44;4913614;29;20058;-81
2023/08/19 10:12:15;;;;;;;5.40;4.20;;;;;;;30.70;48.20;98318.47;4930254;28;20031;-83
2023/08/19 10:14:50;;;;;;;5.05;4.30;;;;;;;30.83;47.18;98328.19;4941135;29;20050;-83
2023/08/19 10:17:16;;;;;;;5.25;4.15;;;;;;;30.66;49.95;98300.94;4924216;28;20031;-84
2023/08/19 10:20:09;;;;;;;6.78;4.00;;;;;;;31.07;48.14;98338.13;4912378;29;20031;-82
2023/08/19 10:22:44;;;;;;;5.13;4.18;;;;;;;31.15;47.22;98326.72;4931439;29;20035;-82
2023/08/19 10:25:50;;;;;;;6.20;4.43;;;;;;;31.27;47.11;98337.59;4948272;28;20490;-83
2023/08/19 10:28:33;;;;;;;5.00;4.10;;;;;;;31.27;46.09;98315.34;4931316;29;20051;-82
2023/08/19 10:31:07;;;;;;;6.30;4.22;;;;;;;31.23;46.29;98300.59;4912898;29;20040;-83
2023/08/19 10:33:39;;;;;;;4.80;4.38;;;;;;;31.45;47.00;98320.38;4920017;29;20468;-83
2023/08/19 10:36:15;;;;;;;5.97;4.60;;;;;;;31.16;46.18;98253.16;4911964;29;20393;-84
2023/08/19 10:38:45;;;;;;;7.57;4.93;;;;;;;31.66;46.11;98331.78;4907043;29;20035;-82
2023/08/19 10:41:37;;;;;;;5.63;4.40;;;;;;;31.71;44.00;98323.09;4923610;28;20070;-82
2023/08/19 10:44:33;;;;;;;7.68;4.32;;;;;;;31.77;44.91;98332.69;4937373;29;20047;-84
2023/08/19 10:47:13;;;;;;;5.32;4.22;;;;;;;31.79;45.30;98316.41;4941648;29;20055;-81
2023/08/19 10:50:04;;;;;;;4.32;3.92;;;;;;;31.92;43.63;98334.47;4924420;29;20047;-82
2023/08/19 10:52:31;;;;;;;6.68;4.45;;;;;;;31.96;44.42;98329.75;4924654;29;20035;-80
2023/08/19 10:54:59;;;;;;;4.38;3.97;;;;;;;32.02;45.72;98325.47;4913705;28;20047;-81
2023/08/19 10:57:27;;;;;;;5.53;4.03;;;;;;;31.88;44.11;98283.50;4914806;29;20048;-81
2023/08/19 11:00:14;;;;;;;4.72;4.13;;;;;;;32.13;44.06;98312.44;4907532;29;20055;-82
2023/08/19 11:03:11;;;;;;;4.93;3.88;;;;;;;32.32;43.90;98326.16;4940373;29;20035;-84
2023/08/19 11:05:51;;;;;;;5.78;4.05;;;;;;;32.18;43.70;98280.63;4944832;29;20042;-84
2023/08/19 11:08:30;;;;;;;6.85;4.63;;;;;;;32.42;42.84;98314.28;4943138;28;20043;-83
2023/08/19 11:11:16;;;;;;;5.68;4.18;;;;;;;32.20;44.20;98279.06;4947042;28;20043;-83
2023/08/19 11:13:43;;;;;;;4.85;4.00;;;;;;;32.37;42.84;98283.97;4931597;28;20450;-82
2023/08/19 11:16:16;;;;;;;5.03;4.18;;;;;;;32.29;42.20;98260.00;4918175;29;20050;-83
2023/08/19 11:19:00;;;;;;;5.63;4.00;;;;;;;32.75;42.20;98322.56;4938005;29;20390;-82
2023/08/19 11:21:31;;;;;;;7.93;4.30;;;;;;;32.59;43.20;98287.75;4928408;29;20039;-84
2023/08/19 11:24:13;;;;;;;6.20;4.30;;;;;;;32.91;43.31;98313.13;4915364;29;20042;-81
2023/08/19 11:26:57;;;;;;;11.95;4.78;;;;;;;32.82;41.73;98281.94;4937843;29;20027;-82
2023/08/19 11:29:24;;;;;;;11.50;4.32;;;;;;;33.24;43.16;98324.09;4936532;29;20039;-81
2023/08/19 11:31:50;;;;;;;5.95;4.10;;;;;;;32.98;41.18;98279.66;4918866;29;20031;-84
2023/08/19 11:34:18;;;;;;;7.07;4.40;;;;;;;33.37;40.79;98322.59;4915258;29;20406;-84
2023/08/19 11:36:54;;;;;;;6.60;3.95;;;;;;;33.06;40.36;98292.50;4964206;28;20023;-83
2023/08/19 11:39:21;;;;;;;6.07;4.50;;;;;;;33.30;41.88;98291.84;4938539;29;20095;-83
2023/08/19 11:42:08;;;;;;;6.30;3.72;;;;;;;33.42;40.45;98295.06;4928847;29;20043;-83
2023/08/19 11:44:35;;;;;;;6.57;3.95;;;;;;;33.64;40.38;98318.34;4930067;28;20042;-82
2023/08/19 11:47:04;;;;;;;5.63;3.83;;;;;;;33.35;39.80;98271.91;4963820;28;20455;-83
2023/08/19 11:49:30;;;;;;;7.55;4.15;;;;;;;33.69;38.53;98309.56;4956820;28;20023;-84
2023/08/19 11:55:48;;;;;;;7.80;4.57;;;;;;;33.53;40.54;98306.31;4967498;28;20058;-83
2023/08/19 11:58:28;;;;;;;6.60;3.95;;;;;;;33.85;37.94;98307.22;4936156;29;20035;-82
2023/08/19 12:04:56;;;;;;;6.45;4.03;;;;;;;33.78;37.43;98279.25;4943067;28;20044;-82
2023/08/19 12:07:30;;;;;;;5.82;3.63;;;;;;;34.07;37.89;98322.88;4924828;29;20032;-82
2023/08/19 12:09:57;;;;;;;6.22;4.18;;;;;;;34.14;37.73;98304.53;4929302;28;20066;-83
2023/08/19 12:12:23;;;;;;;6.15;3.80;;;;;;;34.04;37.79;98273.34;4930970;29;20042;-81
2023/08/19 12:14:48;;;;;;;6.57;4.00;;;;;;;34.49;37.75;98313.75;4910801;29;20061;-80
2023/08/19 12:17:15;;;;;;;6.15;3.70;;;;;;;34.47;37.01;98287.38;4909209;28;20024;-84
2023/08/19 12:19:41;;;;;;;8.10;3.80;;;;;;;34.54;35.41;98287.41;4922238;29;20497;-82
2023/08/19 12:22:09;;;;;;;7.78;4.05;;;;;;;34.51;34.47;98271.38;4921278;28;20063;-81
2023/08/19 12:24:35;;;;;;;8.10;3.90;;;;;;;34.77;35.06;98295.38;4929430;29;20068;-81
2023/08/19 12:27:02;;;;;;;7.80;4.03;;;;;;;34.98;35.39;98312.94;4931616;29;20035;-81
2023/08/19 12:29:27;;;;;;;9.77;4.47;;;;;;;34.82;35.92;98276.19;4926871;29;20043;-84
2023/08/19 12:31:54;;;;;;;6.53;3.92;;;;;;;34.74;34.99;98257.78;4909375;29;20031;-82
2023/08/19 12:34:19;;;;;;;6.78;3.53;;;;;;;35.09;34.82;98285.72;4913130;28;20035;-83
2023/08/19 12:36:45;;;;;;;5.07;4.03;;;;;;;35.13;35.91;98303.31;4931690;29;20080;-83
2023/08/19 12:39:11;;;;;;;5.75;4.07;;;;;;;35.11;34.27;98300.13;4926828;28;20039;-83
2023/08/19 12:41:37;;;;;;;6.53;3.97;;;;;;;34.99;35.03;98275.31;4908892;28;20032;-84
2023/08/19 12:44:03;;;;;;;6.60;3.88;;;;;;;35.09;35.29;98277.34;4928931;29;20048;-84
2023/08/19 12:46:40;;;;;;;10.40;4.32;;;;;;;35.50;35.12;98310.41;4931387;29;20031;-83
2023/08/19 12:49:07;;;;;;;6.45;4.10;;;;;;;35.31;36.04;98248.03;4928247;28;20043;-82
2023/08/19 12:51:36;;;;;;;4.78;3.90;;;;;;;35.60;36.01;98303.97;4909292;29;20031;-82
2023/08/19 12:54:02;;;;;;;4.70;3.97;;;;;;;35.56;35.83;98292.78;4924530;28;20047;-82
2023/08/19 12:56:28;;;;;;;9.32;4.22;;;;;;;35.64;35.20;98299.19;4933061;29;20024;-83
2023/08/19 12:58:54;;;;;;;4.20;3.80;;;;;;;35.69;33.63;98273.50;4913319;29;20061;-82
2023/08/19 13:01:20;;;;;;;6.18;4.30;;;;;;;36.05;34.36;98291.75;4925609;29;20023;-82
2023/08/19 13:03:46;;;;;;;7.03;4.60;;;;;;;35.93;33.39;98283.78;4911402;28;20040;-80
2023/08/19 13:06:24;;;;;;;5.30;4.07;;;;;;;36.12;34.04;98294.50;4920354;29;20085;-83
2023/08/19 13:08:50;;;;;;;5.07;3.70;;;;;;;36.16;33.10;98286.06;4938085;29;20062;-83
2023/08/19 13:11:15;;;;;;;5.07;3.72;;;;;;;36.07;33.35;98294.94;4925176;29;20616;-85
2023/08/19 13:13:41;;;;;;;7.35;4.15;;;;;;;36.08;32.96;98290.94;4918166;28;20047;-82
2023/08/19 13:16:06;;;;;;;5.70;3.53;;;;;;;36.20;33.02;98292.47;4932126;28;20028;-80
2023/08/19 13:18:31;;;;;;;5.93;3.75;;;;;;;36.59;33.96;98309.81;4928746;29;20070;-84
2023/08/19 13:20:57;;;;;;;5.18;3.45;;;;;;;36.01;32.79;98274.16;4976677;28;20429;-83
2023/08/19 13:23:22;;;;;;;5.97;3.85;;;;;;;35.74;33.51;98276.69;5041943;28;20067;-80
2023/08/19 13:25:48;;;;;;;5.88;3.85;;;;;;;36.02;33.12;98276.53;5000532;28;20058;-81
2023/08/19 13:28:14;;;;;;;6.70;4.57;;;;;;;36.15;33.55;98278.88;4931220;28;20542;-81
2023/08/19 13:30:39;;;;;;;7.57;4.70;;;;;;;35.84;33.85;98266.63;4938093;28;20017;-82
2023/08/19 13:33:06;;;;;;;6.00;4.13;;;;;;;36.15;33.88;98298.50;4929177;28;20063;-82
2023/08/19 13:35:34;;;;;;;8.32;4.40;;;;;;;36.32;33.45;98287.13;4903512;29;20410;-82
2023/08/19 13:38:27;;;;;;;4.43;3.83;;;;;;;36.55;33.19;98303.44;4931625;29;20130;-83
2023/08/19 13:40:53;;;;;;;8.20;3.85;;;;;;;36.01;33.69;98260.13;4923062;29;20444;-82
2023/08/19 13:43:18;;;;;;;10.82;4.20;;;;;;;36.16;33.73;98239.16;4931712;28;20024;-81
2023/08/19 13:45:44;;;;;;;5.63;4.20;;;;;;;36.43;33.73;98265.38;4910148;28;20035;-83
2023/08/19 13:48:10;;;;;;;5.85;4.15;;;;;;;36.62;33.18;98287.31;4907071;28;20034;-80
2023/08/19 13:50:37;;;;;;;8.57;4.65;;;;;;;36.65;33.00;98289.31;4916888;28;20046;-81
2023/08/19 13:53:03;;;;;;;5.28;4.45;;;;;;;36.84;33.65;98299.16;4919870;29;20126;-81
2023/08/19 13:55:29;;;;;;;5.32;4.30;;;;;;;36.62;32.77;98262.03;4910272;29;20032;-82
2023/08/19 13:57:54;;;;;;;6.72;4.55;;;;;;;36.83;32.97;98274.31;4913606;29;20024;-81
2023/08/19 14:00:19;;;;;;;6.78;4.68;;;;;;;36.95;33.30;98259.75;4906984;29;20118;-81
2023/08/19 14:02:46;;;;;;;8.27;4.43;;;;;;;37.36;32.26;98305.44;5018110;28;20623;-81
2023/08/19 14:05:16;;;;;;;7.60;4.47;;;;;;;37.39;32.79;98311.03;4919901;29;20035;-82
2023/08/19 14:07:41;;;;;;;6.70;4.82;;;;;;;37.25;32.99;98302.75;4916968;28;20027;-82
2023/08/19 14:10:07;;;;;;;4.80;3.90;;;;;;;36.11;33.38;98284.47;4935770;29;20473;-83
2023/08/19 14:12:33;;;;;;;9.77;4.45;;;;;;;35.62;34.68;98274.34;4922153;29;20031;-83
2023/08/19 14:14:59;;;;;;;6.95;4.40;;;;;;;35.59;34.27;98308.81;4925821;29;20032;-83
2023/08/19 14:17:24;;;;;;;7.28;4.38;;;;;;;35.27;34.42;98285.66;4904492;29;20481;-82
2023/08/19 14:19:50;;;;;;;4.40;3.97;;;;;;;35.32;35.53;98328.06;4916328;29;20036;-81
2023/08/19 14:26:08;;;;;;;7.55;4.40;;;;;;;35.25;36.97;98321.69;4942437;29;20432;-82
2023/08/19 14:28:34;;;;;;;7.45;4.28;;;;;;;35.54;36.30;98308.41;4918680;29;20043;-81
2023/08/19 14:30:59;;;;;;;5.90;4.43;;;;;;;35.51;36.20;98312.03;4918685;28;20054;-83
2023/08/19 14:33:24;;;;;;;7.05;4.53;;;;;;;35.45;35.84;98313.63;4932342;28;20401;-81
2023/08/19 14:35:50;;;;;;;7.13;4.20;;;;;;;35.32;35.72;98322.47;4927328;29;20103;-83
2023/08/19 14:38:15;;;;;;;6.65;4.13;;;;;;;35.36;36.77;98316.84;4913304;29;20035;-83
2023/08/19 14:40:42;;;;;;;5.72;4.38;;;;;;;35.29;36.10;98317.66;4926564;29;20082;-83
2023/08/19 14:43:07;;;;;;;7.88;4.80;;;;;;;35.39;35.65;98322.44;4912942;29;20448;-80
2023/08/19 14:45:33;;;;;;;8.32;4.47;;;;;;;35.03;36.75;98286.56;4911235;28;20020;-83
2023/08/19 14:47:58;;;;;;;7.65;4.15;;;;;;;35.10;36.16;98309.72;4914043;29;20064;-84
2023/08/19 14:50:23;;;;;;;9.55;4.80;;;;;;;35.10;36.59;98318.13;4927536;29;20050;-81
2023/08/19 14:52:49;;;;;;;6.40;4.55;;;;;;;34.97;36.92;98322.53;4945558;29;20074;-81
2023/08/19 14:55:15;;;;;;;8.18;4.53;;;;;;;34.98;37.96;98317.72;4908989;29;20502;-81
2023/08/19 14:57:40;;;;;;;7.05;4.20;;;;;;;34.98;37.74;98318.53;4906899;29;20046;-82
2023/08/19 15:00:10;;;;;;;6.72;4.22;;;;;;;35.32;36.80;98314.06;4911276;29;20066;-83
2023/08/19 15:02:48;;;;;;;7.10;4.38;;;;;;;35.71;35.68;98327.19;4929451;29;20516;-82
2023/08/19 15:05:14;;;;;;;7.30;4.82;;;;;;;35.56;35.51;98322.81;4926290;29;20027;-83
2023/08/19 15:07:39;;;;;;;8.75;4.65;;;;;;;35.37;35.43;98285.63;4916463;29;20562;-81
2023/08/19 15:10:05;;;;;;;7.85;4.30;;;;;;;35.49;37.23;98317.22;4909707;28;20042;-82
2023/08/19 15:12:30;;;;;;;5.93;4.43;;;;;;;35.14;36.39;98285.31;4916324;29;20482;-81
2023/08/19 15:14:56;;;;;;;9.55;4.82;;;;;;;35.11;36.95;98316.94;4918472;28;20060;-81
2023/08/19 15:17:21;;;;;;;10.13;4.43;;;;;;;35.01;36.95;98322.53;4928648;29;20114;-81
2023/08/19 15:19:46;;;;;;;6.35;4.95;;;;;;;34.89;37.17;98311.75;4926083;29;20043;-82
2023/08/19 15:22:12;;;;;;;7.47;4.57;;;;;;;34.64;37.71;98280.97;4928668;29;20059;-81
2023/08/19 15:24:37;;;;;;;8.25;4.30;;;;;;;34.78;37.40;98331.34;4909454;29;20409;-84
2023/08/19 15:27:07;;;;;;;5.72;4.18;;;;;;;34.48;37.64;98294.53;4906395;28;20114;-82
2023/08/19 15:33:32;;;;;;;8.18;4.10;;;;;;;34.53;37.91;98324.97;4988624;28;20097;-83
2023/08/19 15:35:58;;;;;;;11.48;4.65;;;;;;;34.56;38.88;98321.38;4911981;29;20506;-83
2023/08/19 15:38:23;;;;;;;8.50;4.82;;;;;;;34.98;37.80;98312.94;4931089;29;20070;-83
2023/08/19 15:40:59;;;;;;;5.28;4.50;;;;;;;35.39;37.84;98322.44;4925894;29;20482;-82
2023/08/19 15:43:25;;;;;;;6.25;4.68;;;;;;;35.46;37.00;98284.38;4915462;29;20035;-83
2023/08/19 15:45:51;;;;;;;7.72;4.43;;;;;;;35.42;36.40;98299.25;4917305;29;20363;-82
2023/08/19 15:48:16;;;;;;;6.97;4.32;;;;;;;35.32;36.81;98305.66;4934321;28;20040;-81
2023/08/19 15:50:42;;;;;;;7.63;4.50;;;;;;;34.92;36.66;98283.72;4934815;28;20122;-81
2023/08/19 15:53:23;;;;;;;7.75;4.30;;;;;;;34.60;37.01;98280.19;4975229;28;20045;-85
2023/08/19 15:56:14;;;;;;;7.38;4.50;;;;;;;34.64;37.08;98320.97;4953385;28;20046;-83
2023/08/19 16:02:31;;;;;;;5.18;4.30;;;;;;;34.08;37.57;98279.75;4988428;28;20047;-82
2023/08/19 16:04:57;;;;;;;8.85;4.80;;;;;;;34.41;37.72;98311.31;4945721;28;20042;-82
2023/08/19 16:07:32;;;;;;;8.75;4.20;;;;;;;34.82;37.18;98298.56;4925702;29;20047;-83
2023/08/19 16:09:58;;;;;;;7.57;4.15;;;;;;;35.09;36.71;98274.53;4929197;29;20055;-81